Overview Statistics Trail Chart Weather Telemetry Raw packets
 

This is the latest recevied weather packets stored in our database for station/object NT9G. If no packets are shown the sender has not sent any weather packets the latest 10 day(s).

<< 69 70 71 72 73 74 75 >>
Time Temp. Humidity Pressure Rain* Wind** Luminosity Snow
1777348799 15.56° C 100% 1005.5 hPa 1.27 mm - - -
1777348499 15.56° C 100% 1005.5 hPa 1.27 mm - - -
1777348198 15.56° C 100% 1005.5 hPa 1.27 mm - - -
1777347898 15.56° C 100% 1005.5 hPa 1.27 mm - - -
1777347598 15.56° C 100% 1005.4 hPa 1.27 mm - - -
1777347297 15.56° C 100% 1005.4 hPa 1.27 mm - - -
1777346997 15.56° C 100% 1005.5 hPa 1.27 mm - - -
1777346697 15.56° C 100% 1005.5 hPa 1.27 mm - - -
1777346397 15.56° C 100% 1005.2 hPa 1.27 mm - - -
1777346097 15.56° C 100% 1005.1 hPa 1.27 mm - - -
1777345496 15.56° C 100% 1004.9 hPa 1.27 mm - - -
1777344895 15.56° C 100% 1004.5 hPa 1.02 mm - - -
1777343694 16.11° C 100% 1004.2 hPa 1.02 mm - - -
1777343094 16.11° C 100% 1004 hPa 1.02 mm - - -
1777342195 16.11° C 100% 1003.8 hPa 1.02 mm - - -
1777336487 17.22° C 100% 1001.7 hPa 1.02 mm - - -
1777334686 17.78° C 100% 1002.1 hPa 1.02 mm - - -
1777333785 17.78° C 100% 1003.9 hPa 1.02 mm - - -
1777332884 17.78° C 100% 1004.5 hPa 1.02 mm - - -
1777332584 17.78° C 100% 1004.7 hPa 1.02 mm - - -
1777332287 17.78° C 100% 1004.8 hPa 1.02 mm - - -
1777331983 18.33° C 100% 1004.2 hPa 1.02 mm - - -
1777331082 18.33° C 96% 1003.7 hPa 1.02 mm - - -
1777330482 18.89° C 91% 1002.4 hPa 1.02 mm - - -
1777329280 19.44° C 81% 1003.2 hPa 1.02 mm - - -

* Rain since midnight (hover to see other rain measurements)
** Current wind speed in m/s (hover to see current wind gust speed)